03/18/2000
Moonlight Run 2000 - 10KM

Overall Race Results

Position Name CATAGORY Bib.No. Time

1/436 KANANGA, TELES 10KM20-29 2216 00:33:32
2/436 VIOLA, STEVE 10KM20-29 2146 00:35:23
3/436 MATSUNO, LONNIE 10KM30-39 2278 00:35:58
4/436 BICKLEY, ED 10KM40-49 2029 00:36:32
5/436 PROBST, DALE 10KM30-39 2354 00:38:18
6/436 FRASER, PHIL 10KM40-49 2130 00:39:10
7/436 WOOD, KEVIN 10KM20-29 2477 00:39:14
8/436 ABDELLA, AMED 10KM30-39 2002 00:39:15
9/436 RUMER, DAVID 10KM16-19 2370 00:39:28
10/436 WEBER, STEPHEN 10KM30-39 2458 00:40:06
11/436 YEE, BRUCE 10KM40-49 2481 00:40:11
12/436 EMERSON, BARRY 10KM40-49 2117 00:40:15
13/436 GANGL, MARK 10KM20-29 2142 00:40:33
14/436 WIKENHEISER, GREG 10KM30-39 2469 00:40:53
15/436 ARNOLD, RALPH 10KM30-39 2007 00:40:57
16/436 FREEMAN, TERRY 10KM40-49 2131 00:41:11
17/436 HOY, DAVID 10KM40-49 2195 00:41:14
18/436 TOTTEN, TEMPLE 10KM20-29 2428 00:41:20
19/436 MCFADZEN, KEVIN 10KM30-39 2286 00:41:50
20/436 COPPS, TOM 10KM40-49 2076 00:42:00
21/436 WATT, KEVIN 10KM20-29 2456 00:42:03
22/436 LISTER, BEVAN 10KM40-49 2250 00:42:12
23/436 HEINZE, KIM 10KM30-39 2183 00:42:22
24/436 WENZEL, ALEX 10KM30-39 2463 00:42:30
25/436 RUITER, HENK 10KM20-29 2202 00:42:37
26/436 BAILIE, NEIL 10KM30-39 2014 00:42:38
27/436 KOZAK, JOHN 10KM20-29 2232 00:42:42
28/436 MORRIS, GREG 10KM30-39 2309 00:42:48
29/436 NYHOFF, CINDY 10KF30-39 2331 00:43:03
30/436 HARAGUCHI, TOMOYOSHI 10KM20-29 2174 00:43:10
31/436 NESS, DARREN 10KM20-29 2325 00:43:13
32/436 PAGE, ERIN 10KF20-29 2340 00:43:14
33/436 COATES, CHRIS 10KM20-29 2071 00:43:22
34/436 KEITH, PATRICIA 10KF40-49 2222 00:43:29
35/436 BALDREY, RODNEY 10KM30-39 2018 00:43:44
36/436 MACLEOD, ROY 10KM50-59 2266 00:44:11
37/436 RODE, LYLE 10KM40-49 2366 00:44:16
38/436 JONES, DEWI 10KM20-29 2208 00:44:23
39/436 MCMULLIN, ROGER 10KM50-59 2296 00:44:32
40/436 CHIPMAN/MACHEN, MARJORIE10KF30-39 2064 00:44:34
41/436 KEITCH, JUSTIN 10KM20-29 2219 00:44:36
42/436 KINDLEY, KEVIN 10KM40-49 2226 00:44:56
43/436 BALDRY, DEREK 10KM20-29 2020 00:44:57
44/436 WIEBE, STEPHEN 10KM30-39 2468 00:44:58
45/436 CARD, KEVIN 10KM40-49 2058 00:44:58
46/436 MACLAREN, JAMES 10KM30-39 2265 00:45:05
47/436 GONSALVEZ, CHRIS 10KM16-19 2156 00:45:06
48/436 JOSEPH, STEVE 10KM20-29 2212 00:45:11
49/436 VORNBROCK, RICK 10KM30-39 2449 00:45:17
50/436 GARLAND, J.KELLY 10KM30-39 2143 00:45:28
51/436 MACKENZIE, HEATHER 10KF40-49 2264 00:45:29
52/436 LUCERO, HEATHER 10KF30-39 2259 00:45:38
53/436 VANDER WOUDE, JODI 10KF20-29 2440 00:45:42
54/436 SPENCER, SUSAN 10KF40-49 2396 00:45:43
55/436 JAMES, STEVEN 10KM30-39 2201 00:45:48
56/436 DEVLIEGER, MARTEN 10KM16-19 2090 00:46:06
57/436 MCNAB, TRACY 10KF40-49 2297 00:46:11
58/436 MYSHYNIK, GARRY 10KM40-49 2319 00:46:13
59/436 PETERSON, WADE 10KM30-39 2348 00:46:14
60/436 DAVIES, JON 10KM30-39 2084 00:46:16
61/436 GERSTENBUHLER, ARMIN 10KM40-49 2150 00:46:17
62/436 VILLENEUVE, RON 10KM40-49 2446 00:46:19
63/436 DE WALLE, FRANK 10KM40-49 2087 00:46:25
64/436 WOODMAN, CAROLIN 10KF30-39 2479 00:46:37
65/436 JOLLY, SARAH 10KF20-29 2206 00:46:48
66/436 GAUDET, DANIEL 10KM12-15 2145 00:46:52
67/436 BOAK, GARTH 10KM50-59 2034 00:46:55
68/436 ANGYAL, LORI 10KF40-49 2006 00:46:56
69/436 KENNEDY, J0ANNE 10KF30-39 2224 00:46:58
70/436 CANADINE, MIKE 10KM30-39 2057 00:47:03
71/436 DAVIDSON, PATTY A 10KF40-49 2083 00:47:05
72/436 STUPAR, LOUIS 10KM50-59 2406 00:47:07
73/436 MOLCAK, LUKE 10KM16-19 2305 00:47:10
74/436 MCALLISTER, HELEN 10KF20-29 2281 00:47:22
75/436 THIBERT, CAROL 10KF40-49 2416 00:47:23
76/436 VERHESEN, PETER 10KM30-39 2443 00:47:26
77/436 JOEVENAZZO, RANDY 10KM40-49 2203 00:47:28
78/436 MCGREGOR, ROD 10KM40-49 2289 00:47:39
79/436 SIMS, ROBERT 10KM50-59 2390 00:47:45
80/436 COATES, DAVID 10KM50-59 2072 00:47:47
81/436 CARVALHO, RICHARD 10KM30-39 2059 00:47:48
82/436 LAWRENCE, BRYAN 10KM40-49 2240 00:47:51
83/436 KEITH, KEVIN 10KM40-49 2221 00:47:52
84/436 YOUNG, RICHARD 10KM30-39 2486 00:47:56
85/436 BYERS, BOB 10KM60-69 2054 00:48:02
86/436 COWIE, JAN 10KF20-29 2077 00:48:04
87/436 LYON, MARSUS 10KM30-39 2261 00:48:07
88/436 HURDLE, WENDY 10KF12-15 2196 00:48:17
89/436 MANTELLO, BARB 10KF30-39 2270 00:48:19
90/436 BAKKER, JAN 10KM50-59 2017 00:48:25
91/436 MCDERMOTT, KEN 10KM50-59 2283 00:48:33
92/436 BRANCH, KAREN 10KF30-39 2045 00:48:35
93/436 SHARP, KEVIN 10KM30-39 2386 00:48:41
94/436 GRISAK, DONNA 10KF40-49 2161 00:48:42
95/436 MENARD, LAYNE 10KM20-29 2302 00:48:43
96/436 WILLIAMS, ELIZABETH 10KF20-29 2470 00:48:43
97/436 SEHN, FRED 10KM40-49 2384 00:48:44
98/436 BROWNE, ASHLEY 10KM20-29 2050 00:48:48
99/436 URANO, ATSUKO 10KF30-39 2433 00:48:50
100/436 MOLTZ, JODY 10KF30-39 2306 00:48:55
101/436 WONG, TRACY 10KF20-29 2475 00:49:08
102/436 BARNETT, BRIAN 10KM40-49 2023 00:49:08
103/436 BREWER, SHANE 10KM20-29 2046 00:49:09
104/436 FORSTER, BOB 10KM40-49 2127 00:49:19
105/436 ARVES, KATSY 10KF30-39 2008 00:49:23
106/436 MULGREW, MARK 10KM12-15 2316 00:49:25
107/436 PURVES, DARREN 10KM20-29 2356 00:49:26
108/436 MCFADZEN, MICHELLE 10KF20-29 2287 00:49:31
109/436 DUECK, ROD 10KM40-49 2101 00:49:32
110/436 WARREN, JEFF 10KM40-49 2452 00:49:33
111/436 MCDONALD, BILL 10KM50-59 2284 00:49:36
112/436 SCHULZ, TREVOR 10KM20-29 2377 00:49:37
113/436 SENDA, JANE 10KF40-49 2385 00:49:50
114/436 WOJTOWICZ, SHAWN 10KM30-39 2473 00:49:55
115/436 STEWART, RAMONA 10KF50-59 2402 00:49:58
116/436 NIELSON, LAMONT 10KM50-59 2327 00:50:00
117/436 ANDERSON, MELISSA 10KF20-29 2005 00:50:10
118/436 CLARKE, DON 10KM40-49 2069 00:50:15
119/436 DUKE, MICHELLE 10KF30-39 2106 00:50:18
120/436 GALLIMORE, DEAN 10KM30-39 2141 00:50:25
121/436 DUFFY, DAN 10KM20-29 2104 00:50:26
122/436 SADLEMYER, COREY 10KM20-29 2373 00:50:27
123/436 FRITZLER, BYRON 10KM30-39 2134 00:50:31
124/436 THIELEN, LANNIE 10KM20-29 2417 00:50:32
125/436 VEGTER, MELANIE 10KF30-39 2442 00:50:33
126/436 HILL, BRETT 10KM20-29 2186 00:50:35
127/436 CROWFOOT, NATHAN 10KM16-19 2080 00:50:36
128/436 EDEY, LAUREL 10KF30-39 2111 00:50:38
129/436 VAN DORLAND, ANNETTE 10KF40-49 2437 00:50:44
130/436 MCKENNA, MICHAEL 10KM30-39 2290 00:50:53
131/436 FROESE, DON 10KM40-49 2135 00:50:54
132/436 REMIER, WAYNE 10KM60-69 2361 00:50:54
133/436 KOLODZIEJCZYK, ANDREW 10KM30-39 2231 00:50:57
134/436 CLARK, DOUG 10KM40-49 2066 00:51:01
135/436 GALLELLI, RHONDA 10KF40-49 2140 00:51:02
136/436 BROWN, JERRY 10KM50-59 2049 00:51:10
137/436 CROWE, SARAH 10KF16-19 2078 00:51:14
138/436 GATFIELD, KAILA 10KF20-29 2144 00:51:20
139/436 SALMON, MAX 10KM50-59 2374 00:51:23
140/436 THOMSEN, KEN 10KM40-49 2421 00:51:24
141/436 VOLK, STAN 10KM40-49 2447 00:51:25
142/436 LOBAY-NESS, ALAYNE 10KF20-29 2254 00:51:31
143/436 KEITH, DAWN 10KF30-39 2220 00:51:33
144/436 GALLAGHER, CHRISTOPHER 10KM30-39 2138 00:51:37
145/436 ARVIDSON, OWEN 10KM20-29 2009 00:51:39
146/436 THOMAS, CAROLYN 10KF40-49 2418 00:51:41
147/436 ORR, LAURRY 10KM40-49 2338 00:51:42
148/436 YEE, LISA 10KF30-39 2482 00:51:49
149/436 BOORSMA, DICK 10KM40-49 2037 00:51:54
150/436 TAYLOR, JACKIE 10KF30-39 2412 00:51:57
151/436 HILL, RYAN 10KM12-15 2188 00:51:58
152/436 KOZUB, JON 10KM20-29 2233 00:51:59
153/436 BASKERVILLE, FRED 10KM40-49 2025 00:51:59
154/436 WARREN, KATHY 10KF40-49 2453 00:52:01
155/436 PONECH, KEVIN 10KM30-39 2352 00:52:08
156/436 MATTHEWS, ALICIA 10KF20-29 2279 00:52:10
157/436 DRAFFIN, GREGORY 10KM30-39 2095 00:52:11
158/436 HEINRICH, KEVIN 10KM30-39 2181 00:52:19
159/436 MUCCIARONE, GEORGE 10KM30-39 2312 00:52:21
160/436 SCHILLING, JASON 10KM20-29 2376 00:52:22
161/436 REDDEN, SANDY 10KF30-39 2360 00:52:23
162/436 YIP, SAM 10KM30-39 2483 00:52:24
163/436 WHITE, LARRY 10KM50-59 2465 00:52:28
164/436 HAGLUND, JACINTA 10KF30-39 2169 00:52:29
165/436 VEURINK, RUTH 10KF30-39 2444 00:52:30
166/436 GRIER, BLAIR 10KM30-39 2160 00:52:36
167/436 ETTENHOFER, LORI JO 10KF30-39 2122 00:52:37
168/436 WRIGHT, HOLLY 10KF30-39 2480 00:52:50
169/436 BARNETT, JOAN 10KF40-49 2024 00:52:53
170/436 MANTELLO, EMILIO 10KM30-39 2271 00:52:57
171/436 ALLAN, SCOTT 10KM30-39 2004 00:52:59
172/436 OLSON, BARRY 10KM40-49 2334 00:53:13
173/436 GRAY, BRUCE 10KM30-39 2159 00:53:15
174/436 CANADINE, LESLIE 10KF30-39 2056 00:53:16
175/436 NELSON, PETER 10KM40-49 2324 00:53:16
176/436 INGLIS, CINDER 10KF20-29 2198 00:53:23
177/436 ST. LAURENT, JAMES 10KM30-39 2397 00:53:25
178/436 DUKE, GRANT 10KM40-49 2105 00:53:34
179/436 VON CHORUS, DOUG 10KM30-39 2448 00:53:50
180/436 BOUW, WES 10KM30-39 2043 00:53:53
181/436 STOCKER, SHILPA 10KF30-39 2404 00:53:54
182/436 THURBOR, BRUCE 10KM30-39 2424 00:53:55
183/436 BUTLER, PETER 10KM50-59 2052 00:53:58
184/436 DUECK, MURRAY 10KM40-49 2100 00:54:01
185/436 KALEN, JIM 10KM20-29 2215 00:54:03
186/436 ELLINGSON, KRISTEN 10KF20-29 2115 00:54:04
187/436 SCHWARTZENBERGER, ALLAN 10KM30-39 2380 00:54:06
188/436 KINGSEP, PATRICIA 10KF50-59 2229 00:54:08
189/436 EDWARDS, MELISSA 10KF20-29 2112 00:54:11
190/436 GODOY, DUDLEY 10KM50-59 2155 00:54:14
191/436 MATTHEWS, JULIE 10KF40-49 2280 00:54:15
192/436 MUELLER, PETER 10KM50-59 2314 00:54:17
193/436 SCOVILL, SUSAN 10KF50-59 2383 00:54:29
194/436 BOH, JENNIFER 10KF40-49 2204 00:54:30
195/436 YOUNG, REGGIE 10KM11< 2485 00:54:31
196/436 BAKER, DAREL 10KM30-39 2016 00:54:31
197/436 COPELAND, KAREN 10KF30-39 2073 00:54:32
198/436 COPELAND, KEVIN 10KM30-39 2074 00:54:33
199/436 SYME, ALLY 10KF30-39 2408 00:54:33
200/436 SYME, RUSS 10KM30-39 2409 00:54:34
201/436 MARTIN, DAVE 10KM60-69 2275 00:54:40
202/436 NASH, GEOFF 10KM40-49 2320 00:54:47
203/436 MCNALLY, ELIZABETH 10KF20-29 2298 00:54:50
204/436 NISHIYAMA, KIYOMI 10KF40-49 2328 00:54:53
205/436 BLUE, LISA 10KF30-39 2033 00:54:57
206/436 THOMAS, JAMES 10KM30-39 2419 00:54:59
207/436 PYNE, PATRICK 10KM40-49 2357 00:55:02
208/436 LITTLE, BRADLEY 10KM11< 2251 00:55:05
209/436 STEEVES, FLOYD 10KM50-59 2401 00:55:14
210/436 BOUCHER, LISA 10KF30-39 2041 00:55:19
211/436 NORRIE, KATHERINE 10KF20-29 2330 00:55:20
212/436 ROSS, MIKE 10KM40-49 2369 00:55:24
213/436 MCNALLY, NORA 10KF40-49 2299 00:55:27
214/436 LASTUKA, DAWN 10KF30-39 2239 00:55:44
215/436 LINDENBAUCH, JAMIE 10KM40-49 2248 00:55:45
216/436 MCCRAY, GLENN 10KM30-39 2282 00:56:01
217/436 MACEACHERN, CARA 10KF30-39 2263 00:56:06
218/436 THORLACIUS, CHARLENE 10KF30-39 2423 00:56:06
219/436 BAINES, JULIE 10KF20-29 2015 00:56:09
220/436 LORENZ, BRENT 10KM20-29 2258 00:56:13
221/436 LEISHMAN, CURTIS 10KM20-29 2244 00:56:18
222/436 MCLAUGHLIN, DOUG 10KM40-49 2292 00:56:19
223/436 MENTANKO-TIEFENBACH, DONNA10KF30-39 2303 00:56:26
224/436 ZAGORSKY, DOUG 10KM20-29 2487 00:56:27
225/436 SMITH, LYNSAY 10KF20-29 2393 00:56:30
226/436 MUIR, TRACY 10KF20-29 2315 00:56:30
227/436 GALLAGHER, DIANE 10KF20-29 2139 00:56:32
228/436 GIBOS, LENORE 10KF20-29 2152 00:56:36
229/436 HARRIS, DARREN 10KM30-39 2177 00:56:37
230/436 UNGER, BUCK 10KM16-19 2430 00:56:38
231/436 MAHON, BRUCE 10KM20-29 2267 00:56:39
232/436 LONDEAU, CHERLY 10KF20-29 2257 00:56:44
233/436 MCLEOD, MARILYN 10KF40-49 2294 00:56:51
234/436 FERGUSON, PATTY 10KF40-49 2125 00:56:54
235/436 HAUSER, CAROL 10KF40-49 2178 00:56:56
236/436 MARTIN, FRED 10KM50-59 2277 00:57:13
237/436 SPATE, JAY 10KM20-29 2394 00:57:20
238/436 TARRANT, DENNIS 10KM50-59 2411 00:57:26
239/436 LITTLE, D.J. 10KM30-39 2252 00:57:31
240/436 SUGDEN, RACHELLE 10KF30-39 2407 00:57:40
241/436 RENNIE, BRENDA 10KF40-49 2362 00:57:41
242/436 ELIUK, PETER 10KM40-49 2114 00:57:43
243/436 RASMUSSEN, HOWARD 10KM40-49 2359 00:57:44
244/436 FRITZ, KEN 10KM50-59 2133 00:57:48
245/436 UNGER, THERESA 10KF30-39 2432 00:57:52
246/436 HAMILTON, SHAWN 10KF40-49 2171 00:57:57
247/436 LEFEBVRE, TARALYN 10KF20-29 2243 00:57:59
248/436 LEMIRE, NADIA 10KF20-29 2494 00:57:59
249/436 CUDDEFORD, GARY 10KM40-49 2082 00:58:04
250/436 OLIVIER, ARTHUR 10KM50-59 2333 00:58:06
251/436 JOHNSTON, KARLA 10KF20-29 2205 00:58:12
252/436 VAN DEURZEN, FRANK 10KM50-59 2436 00:58:18
253/436 GURLEVITCH, HEATHER 10KF30-39 2166 00:58:19
254/436 HAGAN, AL 10KM50-59 2167 00:58:21
255/436 MCGEE, DAN 10KM40-49 2288 00:58:26
256/436 MCLAUGHLIN, PEGGY 10KF40-49 2293 00:58:27
257/436 PLOURDE, TONI 10KF40-49 2351 00:58:29
258/436 NIELSON, DALE 10KM20-29 2326 00:58:37
259/436 STANTON, MICHELLE 10KF30-39 2398 00:58:38
260/436 ELLIOT, BONNIE 10KF30-39 2116 00:58:40
261/436 VANDERVEEN, SHIRLEY 10KF40-49 2441 00:58:46
262/436 DEGRAFF, TENA 10KF30-39 2088 00:59:04
263/436 WHITE, MARY 10KF60-69 2466 00:59:09
264/436 PONECH, LEANNE 10KF30-39 2353 00:59:13
265/436 LA ROSE, SEAN 10KM12-15 2238 00:59:14
266/436 JORGENSEN, CHRIS 10KM20-29 2210 00:59:16
267/436 MOSER, BRIAN 10KM30-39 2311 00:59:17
268/436 KINGSEP, GARY 10KM50-59 2228 00:59:17
269/436 ARVIDSON, ROBERT 10KM50-59 2010 00:59:18
270/436 HANDSAEME, SHERRY 10KF30-39 2173 00:59:19
271/436 DULLEY, SUE 10KF50-59 2107 00:59:20
272/436 BOORSMA, JOANN 10KF40-49 2038 00:59:23
273/436 ZAPPONE, FRANK 10KM30-39 2488 00:59:24
274/436 FARADAY, JAMES 10KM30-39 2123 00:59:25
275/436 WERRE, DARRELL 10KM30-39 2464 00:59:30
276/436 BROOKS, WALLY 10KM40-49 2492 00:59:33
277/436 CLELAND, CYNTHIA 10KF40-49 2070 00:59:40
278/436 MARTE, COLLEEN 10KF30-39 2273 00:59:41
279/436 CLARK, STEPHEN 10KM50-59 2068 00:59:50
280/436 ORR, MERVIN 10KM40-49 2339 00:59:53
281/436 CROWFOOT, STRATEN 10KM40-49 2081 00:59:55
282/436 DUECK, SHELLEY 10KF20-29 2103 00:59:56
283/436 BALDRY, ROGER 10KM40-49 2021 00:59:57
284/436 ORR, JULIE 10KF40-49 2337 00:59:58
285/436 ZEMP, NORMA 10KF40-49 2489 00:59:59
286/436 BYDEVAATE, JANE 10KF50-59 2053 01:00:02
287/436 KARDASH, STACEY 10KF30-39 2218 01:00:03
288/436 NORLIN, KAREN 10KF30-39 2329 01:00:06
289/436 KAIN, CRYSTAL 10KF20-29 2214 01:00:11
290/436 DORVAL, AL 10KM40-49 2094 01:00:15
291/436 HAKSTOL, KEN 10KM40-49 2170 01:00:17
292/436 HO, DOUGLAS 10KM50-59 2191 01:00:19
293/436 LITTLE, DEANNA 10KF11< 2253 01:00:32
294/436 PAVLUS, MEL 10KF30-39 2345 01:00:33
295/436 GRAHAM, BOB 10KM40-49 2157 01:00:33
296/436 DEMKIW, STEVE 10KM40-49 2089 01:00:39
297/436 MCKILLOP, MARGARET 10KF40-49 2291 01:00:49
298/436 MARCHUK, GRANT 10KM40-49 2272 01:00:56
299/436 AULT, RAY 10KM40-49 2011 01:00:57
300/436 WAYSLOW, GERI 10KF30-39 2457 01:00:58
301/436 DOLAN, ROBERT 10KM50-59 2091 01:01:15
302/436 LIEVAART, MARIE 10KF40-49 2246 01:01:16
303/436 HOWE, LINDA 10KF50-59 2194 01:01:18
304/436 JONES, KATHY 10KF20-29 2209 01:01:22
305/436 BEAVEN, JOHN 10KM50-59 2026 01:01:23
306/436 VAN RAAY, COR 10KM60-69 2439 01:01:24
307/436 FARRIES, DAWN 10KF20-29 2124 01:01:25
308/436 BILLINGS, BARBARA 10KF50-59 2030 01:01:29
309/436 VAN HIERDEN, BRENDA 10KF30-39 2438 01:01:34
310/436 TERLIEN, PAUL 10KM40-49 2415 01:01:43
311/436 BALDRY, CHRISTY 10KF20-29 2019 01:01:43
312/436 HEINRICH, SHEILA 10KF40-49 2182 01:01:54
313/436 DE KREEK, YOLANDA 10KF40-49 2086 01:02:11
314/436 JOLY, LINDA 10KF50-59 2207 01:02:12
315/436 WARREN, JARED 10KM12-15 2451 01:02:14
316/436 VILLENEUVE, CAROL 10KF40-49 2445 01:02:15
317/436 ROSENEGGER, STEPHEN 10KM20-29 2367 01:02:17
318/436 WASKIEWICZ, ANDREW 10KM40-49 2454 01:02:18
319/436 BILLINGS, BJ 10KM50-59 2031 01:02:19
320/436 CROWFOOT, ELLEN 10KF40-49 2079 01:02:22
321/436 WIEBE, LARA 10KF30-39 2467 01:02:30
322/436 HILBORN, DEBRA 10KF20-29 2185 01:02:32
323/436 BUCK, BARBARA 10KF20-29 2051 01:02:33
324/436 TEMPLIN, MARJORIE 10KF40-49 2413 01:02:36
325/436 MELON, KAREN 10KF40-49 2301 01:02:37
326/436 EARL, KENT 10KM20-29 2110 01:02:41
327/436 RUPP, ANN 10KF30-39 2371 01:02:42
328/436 LEWIS, MARGARET 10KF50-59 2245 01:02:43
329/436 PINSENT, SHERRY 10KF30-39 2350 01:02:47
330/436 BROWN, CINDY 10KF30-39 2047 01:02:50
331/436 STEEN, CAROL 10KF40-49 2399 01:03:04
332/436 BRADEN, DOUG 10KM30-39 2044 01:03:09
333/436 YOUNG, ALIDA 10KF12-15 2484 01:03:13
334/436 ORR, JUDY 10KF50-59 2336 01:03:21
335/436 MORRIS, NANCY 10KF40-49 2310 01:03:46
336/436 ZIMMERMAN, DARCY 10KF20-29 2490 01:03:52
337/436 PEREGOODOFF, ROBERT 10KM30-39 2347 01:03:52
338/436 SCHWARTZENBERGER, LORI 10KF30-39 2381 01:03:53
339/436 LOEWEN, NICOLE 10KF16-19 2256 01:03:57
340/436 KRAMER, LAVONA 10KF50-59 2234 01:03:58
341/436 SHIPP, ANGELA 10KF40-49 2387 01:04:08
342/436 DUDLEY, SHAWNA 10KF20-29 2098 01:04:09
343/436 MUELLER, PAT 10KF50-59 2313 01:04:13
344/436 WILLIAMS, JUDY 10KF30-39 2471 01:04:19
345/436 SIEGLE, KARLA 10KF20-29 2389 01:04:20
346/436 WONG, WENDY 10KF40-49 2476 01:04:33
347/436 STUBBS, ROBERT 10KM40-49 2405 01:04:36
348/436 METZ, STACY 10KF20-29 2304 01:04:38
349/436 PIECHARKA, GAYLE 10KF40-49 2349 01:04:40
350/436 GILLETT, SHARON 10KF40-49 2153 01:04:44
351/436 FRIESEN, ELSIE 10KF30-39 2132 01:04:45
352/436 CLARK, LINDA 10KF40-49 2067 01:04:46
353/436 BOSNAK, ANNA MARIE 10KF50-59 2040 01:04:47
354/436 WEIGHILL, LIBBY 10KF50-59 2462 01:04:54
355/436 EMERSON, TRISH 10KF40-49 2118 01:05:20
356/436 MANCHESTER, KELLIE 10KF20-29 2269 01:05:32
357/436 COPPS, DONNA 10KF40-49 2075 01:05:33
358/436 GROAT, JIM 10KM30-39 2162 01:05:37
359/436 GROAT, LORI 10KF30-39 2163 01:05:38
360/436 TURCOTTE, VAL 10KF40-49 2429 01:05:39
361/436 GRANT, CORAL 10KF40-49 2158 01:05:40
362/436 SCHWARTZ, MARVIN 10KM40-49 2378 01:05:52
363/436 DRAY, DOROTHY 10KF60-69 2096 01:06:11
364/436 ERB, LANDON 10KM12-15 2121 01:06:18
365/436 PULKKINEN, HANNA-RIIKKA 10KF16-19 2355 01:06:23
366/436 FROHLICK, PAT 10KF50-59 2136 01:06:26
367/436 FROHLICK, RON 10KM50-59 2137 01:06:27
368/436 LAWRENCE, LEAH 10KF30-39 2241 01:06:27
369/436 PASOLLI, ALAN 10KM40-49 2342 01:06:42
370/436 ORR, JOCELYN 10KF30-39 2335 01:06:45
371/436 TIBBLE, HOLLY 10KF40-49 2425 01:06:48
372/436 KING, EILENE 10KF50-59 2227 01:06:48
373/436 AUSTIN, MIRIAM 10KF40-49 2013 01:06:49
374/436 EDWORTHY, CHRISTINE 10KF40-49 2113 01:06:54
375/436 WARDLEY, LORRI 10KF40-49 2450 01:07:00
376/436 BERRY, SCOTT 10KM20-29 2028 01:07:08
377/436 MARTIN, CAROLINE 10KF40-49 2274 01:07:14
378/436 BYERS, BRIGITTE 10KF50-59 2055 01:07:23
379/436 CHAMPLONE, DINO 10KM30-39 2061 01:07:30
380/436 WOGSBERG, MARILYN 10KF30-39 2472 01:07:31
381/436 NELSON, DALE 10KM40-49 2323 01:07:33
382/436 ZOOK, JIM 10KM40-49 2491 01:07:46
383/436 THOMAS, ROB 10KM30-39 2420 01:07:51
384/436 SCHWEITZER, CATHY 10KF40-49 2382 01:07:55
385/436 JULIEN, ISABELLE 10KF20-29 2213 01:07:56
386/436 CAWLEY, JOY 10KF40-49 2060 01:08:00
387/436 RIPLEY, LINDA 10KF40-49 2364 01:08:05
388/436 MUTCH, LAVONN 10KF40-49 2317 01:08:19
389/436 KUNDRIK, CAROL 10KF30-39 2237 01:08:32
390/436 HARDIE, RON 10KM50-59 2175 01:08:53
391/436 GERGELY, JESSICA 10KF20-29 2148 01:08:54
392/436 WEBSTER, BRUCE 10KM40-49 2459 01:08:55
393/436 SHORE, EMERICE 10KF50-59 2388 01:08:59
394/436 KUIZENGA, CYNTHIA 10KF20-29 2236 01:09:04
395/436 BORON, YVONNE 10KF30-39 2039 01:09:05
396/436 CHAPMAN, MELANIE 10KF30-39 2063 01:09:09
397/436 DUNCAN, KATHLEEN 10KF16-19 2109 01:09:14
398/436 DUNCAN, JENNIFER 10KF16-19 2108 01:09:17
399/436 HORNBERGER, CAROL 10KF40-49 2193 01:09:21
400/436 CHAPMAN, JIM 10KM40-49 2062 01:09:25
401/436 HERRON, JOHN 10KM50-59 2184 01:09:38
402/436 UNGER, CLARENCE 10KM30-39 2431 01:09:43
403/436 MARTIN, ELAINE 10KF40-49 2276 01:09:57
404/436 TAJCNAR, JAN 10KF30-39 2410 01:10:27
405/436 AARSEN, MARIAN 10KF50-59 2001 01:10:31
406/436 ENTWHISTLE, EVELYN 10KF30-39 2119 01:10:32
407/436 ENTWHISTLE, IAN 10KM30-39 2120 01:11:28
408/436 SISSONS, GREG 10KM12-15 2391 01:11:29
409/436 PASICIEL, BRIAN 10KM12-15 2341 01:11:33
410/436 PENNER, NATHAN 10KM12-15 2346 01:11:34
411/436 SANDERSON, JUDY 10KF40-49 2375 01:11:34
412/436 PASOLLI, LORNA 10KF30-39 2343 01:11:38
413/436 BROWN, CINDY 10KF30-39 2048 01:11:55
414/436 DUECK, SANDY 10KF30-39 2102 01:12:52
415/436 DUECK, CARL 10KM30-39 2099 01:12:55
416/436 SCHWARTZ, TIFFANY 10KF16-19 2379 01:12:57
417/436 VAN DER MERWE, IZAK 10KM50-59 2434 01:13:01
418/436 VAN DER MERWE, LEE 10KF40-49 2435 01:13:14
419/436 MYCK, SHARON 10KF40-49 2318 01:13:15
420/436 KILAM, AMY 10KF12-15 2225 01:14:23
421/436 HAGEL, ASHLEE 10KF12-15 2168 01:14:46
422/436 DORAM, TENILLE 10KF12-15 2093 01:14:47
423/436 DORAM, JOY 10KF40-49 2092 01:14:48
424/436 SPENCER, ROSS 10KM40-49 2395 01:15:23
425/436 THOMSEN, RITA 10KF40-49 2422 01:15:34
426/436 WOLOSCHUK, BRENDA 10KF30-39 2368 01:16:51
427/436 JACKSON, WAYNE 10KM50-59 2199 01:17:37
428/436 JAKUBOWYCH, BEV 10KF40-49 2200 01:18:20
429/436 GUGYELKA, NATHASHA 10KF20-29 2165 01:21:00
430/436 GERGELY, PAT 10KF40-49 2149 01:24:24
431/436 ALEBKIS, TERRY 10KM60-69 2003 01:24:25
432/436 SACCOMANI, AURELIA 10KF40-49 2372 01:28:41
433/436 NEALE, SAM 10KM11< 2322 01:28:43
434/436 NEALE, FRED 10KM40-49 2321 01:29:30
435/436 BOCHENKO, MARY 10KF40-49 2035 01:32:18
436/436 HAWTHORNE, REED 10KM40-49 2179 01:48:18